sensor_id;sensor_type;location;lat;lon;timestamp;temperature;humidity
10964;DHT22;5534;48.784;9.190;2022-12-13T00:01:35;0.70;99.90
10964;DHT22;5534;48.784;9.190;2022-12-13T00:04:03;0.50;99.90
10964;DHT22;5534;48.784;9.190;2022-12-13T00:06:30;0.60;99.90
10964;DHT22;5534;48.784;9.190;2022-12-13T00:08:56;0.60;99.90
10964;DHT22;5534;48.784;9.190;2022-12-13T00:11:22;0.70;99.90
10964;DHT22;5534;48.784;9.190;2022-12-13T00:13:49;0.70;99.90
10964;DHT22;5534;48.784;9.190;2022-12-13T00:16:17;0.70;99.90
10964;DHT22;5534;48.784;9.190;2022-12-13T00:18:46;0.70;99.90
10964;DHT22;5534;48.784;9.190;2022-12-13T00:21:14;0.70;99.90
10964;DHT22;5534;48.784;9.190;2022-12-13T00:23:40;0.30;99.90
10964;DHT22;5534;48.784;9.190;2022-12-13T00:26:09;0.30;99.90
10964;DHT22;5534;48.784;9.190;2022-12-13T00:28:36;0.40;99.90
10964;DHT22;5534;48.784;9.190;2022-12-13T00:31:05;0.00;99.90
10964;DHT22;5534;48.784;9.190;2022-12-13T00:33:31;0.10;99.90
10964;DHT22;5534;48.784;9.190;2022-12-13T00:35:57;0.40;99.90
10964;DHT22;5534;48.784;9.190;2022-12-13T00:38:23;0.50;99.90
10964;DHT22;5534;48.784;9.190;2022-12-13T00:40:49;0.40;99.90
10964;DHT22;5534;48.784;9.190;2022-12-13T00:43:16;0.20;99.90
10964;DHT22;5534;48.784;9.190;2022-12-13T00:45:42;0.30;99.90
10964;DHT22;5534;48.784;9.190;2022-12-13T00:48:09;0.40;99.90
10964;DHT22;5534;48.784;9.190;2022-12-13T00:50:36;0.30;99.90
10964;DHT22;5534;48.784;9.190;2022-12-13T00:53:02;0.00;99.90
10964;DHT22;5534;48.784;9.190;2022-12-13T00:55:28;-0.50;99.90
10964;DHT22;5534;48.784;9.190;2022-12-13T00:57:54;-0.80;99.90
10964;DHT22;5534;48.784;9.190;2022-12-13T01:00:20;-0.60;99.90
10964;DHT22;5534;48.784;9.190;2022-12-13T01:02:46;-0.10;99.90
10964;DHT22;5534;48.784;9.190;2022-12-13T01:05:12;0.00;99.90
10964;DHT22;5534;48.784;9.190;2022-12-13T01:07:39;-0.30;99.90
10964;DHT22;5534;48.784;9.190;2022-12-13T01:10:05;-0.90;99.90
10964;DHT22;5534;48.784;9.190;2022-12-13T01:12:33;-1.10;99.90
10964;DHT22;5534;48.784;9.190;2022-12-13T01:15:02;-0.50;99.90
10964;DHT22;5534;48.784;9.190;2022-12-13T01:17:28;-0.20;99.90
10964;DHT22;5534;48.784;9.190;2022-12-13T01:19:55;0.20;99.90
10964;DHT22;5534;48.784;9.190;2022-12-13T01:22:21;0.30;99.90
10964;DHT22;5534;48.784;9.190;2022-12-13T01:24:47;0.40;99.90
10964;DHT22;5534;48.784;9.190;2022-12-13T01:27:14;0.20;99.90
10964;DHT22;5534;48.784;9.190;2022-12-13T01:29:39;-0.10;99.90
10964;DHT22;5534;48.784;9.190;2022-12-13T01:32:05;0.10;99.90
10964;DHT22;5534;48.784;9.190;2022-12-13T01:34:31;0.10;99.90
10964;DHT22;5534;48.784;9.190;2022-12-13T01:36:57;0.30;99.90
10964;DHT22;5534;48.784;9.190;2022-12-13T01:39:23;0.30;99.90
10964;DHT22;5534;48.784;9.190;2022-12-13T01:41:51;0.40;99.90
10964;DHT22;5534;48.784;9.190;2022-12-13T01:47:25;0.40;99.90
10964;DHT22;5534;48.784;9.190;2022-12-13T01:49:54;0.40;99.90
10964;DHT22;5534;48.784;9.190;2022-12-13T01:52:20;0.50;99.90
10964;DHT22;5534;48.784;9.190;2022-12-13T01:54:48;0.50;99.90
10964;DHT22;5534;48.784;9.190;2022-12-13T01:57:17;0.50;99.90
10964;DHT22;5534;48.784;9.190;2022-12-13T01:59:44;0.50;99.90
10964;DHT22;5534;48.784;9.190;2022-12-13T02:02:13;0.40;99.90
10964;DHT22;5534;48.784;9.190;2022-12-13T02:07:16;-0.20;99.90
10964;DHT22;5534;48.784;9.190;2022-12-13T02:09:43;-0.10;99.90
10964;DHT22;5534;48.784;9.190;2022-12-13T02:12:10;-0.20;99.90
10964;DHT22;5534;48.784;9.190;2022-12-13T02:14:37;0.10;99.90
10964;DHT22;5534;48.784;9.190;2022-12-13T02:17:27;-0.10;99.90
10964;DHT22;5534;48.784;9.190;2022-12-13T02:30:44;0.20;99.90
10964;DHT22;5534;48.784;9.190;2022-12-13T02:41:24;-0.50;99.90
10964;DHT22;5534;48.784;9.190;2022-12-13T02:44:03;-0.30;99.90
10964;DHT22;5534;48.784;9.190;2022-12-13T02:46:34;0.00;99.90
10964;DHT22;5534;48.784;9.190;2022-12-13T02:49:02;-0.90;99.90
10964;DHT22;5534;48.784;9.190;2022-12-13T02:51:30;-0.60;99.90
10964;DHT22;5534;48.784;9.190;2022-12-13T02:53:56;-0.30;99.90
10964;DHT22;5534;48.784;9.190;2022-12-13T02:56:22;-0.10;99.90
10964;DHT22;5534;48.784;9.190;2022-12-13T02:58:52;-0.10;99.90
10964;DHT22;5534;48.784;9.190;2022-12-13T03:07:08;-0.10;99.90
10964;DHT22;5534;48.784;9.190;2022-12-13T03:09:57;-0.60;99.90
10964;DHT22;5534;48.784;9.190;2022-12-13T03:12:34;-0.80;99.90
10964;DHT22;5534;48.784;9.190;2022-12-13T03:17:52;-0.30;99.90
10964;DHT22;5534;48.784;9.190;2022-12-13T03:20:26;-0.50;99.90
10964;DHT22;5534;48.784;9.190;2022-12-13T03:22:52;-0.80;99.90
10964;DHT22;5534;48.784;9.190;2022-12-13T03:25:19;-0.50;99.90
10964;DHT22;5534;48.784;9.190;2022-12-13T03:27:45;-0.20;99.90
10964;DHT22;5534;48.784;9.190;2022-12-13T03:30:11;-0.10;99.90
10964;DHT22;5534;48.784;9.190;2022-12-13T03:32:37;-0.10;99.90
10964;DHT22;5534;48.784;9.190;2022-12-13T03:35:03;-0.20;99.90
10964;DHT22;5534;48.784;9.190;2022-12-13T03:37:29;0.00;99.90
10964;DHT22;5534;48.784;9.190;2022-12-13T03:39:56;0.00;99.90
10964;DHT22;5534;48.784;9.190;2022-12-13T03:42:21;0.00;99.90
10964;DHT22;5534;48.784;9.190;2022-12-13T03:44:47;-0.10;99.90
10964;DHT22;5534;48.784;9.190;2022-12-13T03:47:13;-0.10;99.90
10964;DHT22;5534;48.784;9.190;2022-12-13T03:49:39;-0.10;99.90
10964;DHT22;5534;48.784;9.190;2022-12-13T03:52:05;-0.10;99.90
10964;DHT22;5534;48.784;9.190;2022-12-13T03:54:31;0.00;99.90
10964;DHT22;5534;48.784;9.190;2022-12-13T03:56:58;0.00;99.90
10964;DHT22;5534;48.784;9.190;2022-12-13T03:59:25;-0.40;99.90
10964;DHT22;5534;48.784;9.190;2022-12-13T04:01:50;-0.40;99.90
10964;DHT22;5534;48.784;9.190;2022-12-13T04:04:16;-0.30;99.90
10964;DHT22;5534;48.784;9.190;2022-12-13T04:06:42;-0.30;99.90
10964;DHT22;5534;48.784;9.190;2022-12-13T04:09:07;-0.30;99.90
10964;DHT22;5534;48.784;9.190;2022-12-13T04:11:33;-0.40;99.90
10964;DHT22;5534;48.784;9.190;2022-12-13T04:14:18;-0.80;99.90
10964;DHT22;5534;48.784;9.190;2022-12-13T04:16:43;-0.80;99.90
10964;DHT22;5534;48.784;9.190;2022-12-13T04:19:11;-1.30;99.90
10964;DHT22;5534;48.784;9.190;2022-12-13T04:21:36;-1.10;99.90
10964;DHT22;5534;48.784;9.190;2022-12-13T04:24:02;-0.80;99.90
10964;DHT22;5534;48.784;9.190;2022-12-13T04:26:28;-0.50;99.90
10964;DHT22;5534;48.784;9.190;2022-12-13T04:28:55;-0.40;99.90
10964;DHT22;5534;48.784;9.190;2022-12-13T04:31:21;-0.40;99.90
10964;DHT22;5534;48.784;9.190;2022-12-13T04:33:47;-0.40;99.90
10964;DHT22;5534;48.784;9.190;2022-12-13T04:36:13;-0.50;99.90
10964;DHT22;5534;48.784;9.190;2022-12-13T04:38:45;-0.40;99.90
10964;DHT22;5534;48.784;9.190;2022-12-13T04:41:16;-0.60;99.90
10964;DHT22;5534;48.784;9.190;2022-12-13T04:43:43;-0.50;99.90
10964;DHT22;5534;48.784;9.190;2022-12-13T04:46:09;-0.50;99.90
10964;DHT22;5534;48.784;9.190;2022-12-13T04:48:35;-0.50;99.90
10964;DHT22;5534;48.784;9.190;2022-12-13T04:51:01;-0.70;99.90
10964;DHT22;5534;48.784;9.190;2022-12-13T04:53:28;-0.90;99.90
10964;DHT22;5534;48.784;9.190;2022-12-13T04:55:54;-0.70;99.90
10964;DHT22;5534;48.784;9.190;2022-12-13T04:58:20;-1.10;99.90
10964;DHT22;5534;48.784;9.190;2022-12-13T05:00:46;-1.20;99.90
10964;DHT22;5534;48.784;9.190;2022-12-13T05:03:12;-1.00;99.90
10964;DHT22;5534;48.784;9.190;2022-12-13T05:05:40;-0.80;99.90
10964;DHT22;5534;48.784;9.190;2022-12-13T05:08:06;-0.70;99.90
10964;DHT22;5534;48.784;9.190;2022-12-13T05:10:32;-1.20;99.90
10964;DHT22;5534;48.784;9.190;2022-12-13T05:13:00;-1.10;99.90
10964;DHT22;5534;48.784;9.190;2022-12-13T05:15:26;-1.00;99.90
10964;DHT22;5534;48.784;9.190;2022-12-13T05:17:52;-0.90;99.90
10964;DHT22;5534;48.784;9.190;2022-12-13T05:20:18;-0.80;99.90
10964;DHT22;5534;48.784;9.190;2022-12-13T05:22:44;-0.60;99.90
10964;DHT22;5534;48.784;9.190;2022-12-13T05:25:09;-0.60;99.90
10964;DHT22;5534;48.784;9.190;2022-12-13T05:27:36;-0.80;99.90
10964;DHT22;5534;48.784;9.190;2022-12-13T05:30:02;-0.60;99.90
10964;DHT22;5534;48.784;9.190;2022-12-13T05:32:33;-0.40;99.90
10964;DHT22;5534;48.784;9.190;2022-12-13T05:35:01;-0.60;99.90
10964;DHT22;5534;48.784;9.190;2022-12-13T05:37:27;-0.50;99.90
10964;DHT22;5534;48.784;9.190;2022-12-13T05:39:52;-0.30;99.90
10964;DHT22;5534;48.784;9.190;2022-12-13T05:42:18;-0.20;99.90
10964;DHT22;5534;48.784;9.190;2022-12-13T05:44:44;-0.20;99.90
10964;DHT22;5534;48.784;9.190;2022-12-13T05:47:10;-0.40;99.90
10964;DHT22;5534;48.784;9.190;2022-12-13T05:49:35;-0.50;99.90
10964;DHT22;5534;48.784;9.190;2022-12-13T05:52:01;-0.80;99.90
10964;DHT22;5534;48.784;9.190;2022-12-13T05:54:30;-0.70;99.90
10964;DHT22;5534;48.784;9.190;2022-12-13T05:56:56;-0.70;99.90
10964;DHT22;5534;48.784;9.190;2022-12-13T05:59:21;-0.50;99.90
10964;DHT22;5534;48.784;9.190;2022-12-13T06:01:47;-0.70;99.90
10964;DHT22;5534;48.784;9.190;2022-12-13T06:04:13;-0.80;99.90
10964;DHT22;5534;48.784;9.190;2022-12-13T06:06:39;-0.60;99.90
10964;DHT22;5534;48.784;9.190;2022-12-13T06:09:04;-0.70;99.90
10964;DHT22;5534;48.784;9.190;2022-12-13T06:11:32;-0.80;99.90
10964;DHT22;5534;48.784;9.190;2022-12-13T06:13:57;-0.80;99.90
10964;DHT22;5534;48.784;9.190;2022-12-13T06:16:23;-0.70;99.90
10964;DHT22;5534;48.784;9.190;2022-12-13T06:18:49;-0.60;99.90
10964;DHT22;5534;48.784;9.190;2022-12-13T06:21:15;-0.40;99.90
10964;DHT22;5534;48.784;9.190;2022-12-13T06:23:41;-0.50;99.90
10964;DHT22;5534;48.784;9.190;2022-12-13T06:26:07;-0.40;99.90
10964;DHT22;5534;48.784;9.190;2022-12-13T06:28:33;-0.50;99.90
10964;DHT22;5534;48.784;9.190;2022-12-13T06:31:00;-0.40;99.90
10964;DHT22;5534;48.784;9.190;2022-12-13T06:33:26;-0.40;99.90
10964;DHT22;5534;48.784;9.190;2022-12-13T06:35:55;-0.30;99.90
10964;DHT22;5534;48.784;9.190;2022-12-13T06:38:21;-0.60;99.90
10964;DHT22;5534;48.784;9.190;2022-12-13T06:40:47;-0.90;99.90
10964;DHT22;5534;48.784;9.190;2022-12-13T06:43:13;-0.70;99.90
10964;DHT22;5534;48.784;9.190;2022-12-13T06:45:39;-0.70;99.90
10964;DHT22;5534;48.784;9.190;2022-12-13T06:48:07;-0.50;99.90
10964;DHT22;5534;48.784;9.190;2022-12-13T06:50:33;-0.50;99.90
10964;DHT22;5534;48.784;9.190;2022-12-13T06:52:58;-0.50;99.90
10964;DHT22;5534;48.784;9.190;2022-12-13T06:55:24;-0.60;99.90
10964;DHT22;5534;48.784;9.190;2022-12-13T06:57:50;-0.60;99.90
10964;DHT22;5534;48.784;9.190;2022-12-13T07:00:16;-0.60;99.90
10964;DHT22;5534;48.784;9.190;2022-12-13T07:02:42;-0.70;99.90
10964;DHT22;5534;48.784;9.190;2022-12-13T07:05:09;-0.70;99.90
10964;DHT22;5534;48.784;9.190;2022-12-13T07:07:34;-0.60;99.90
10964;DHT22;5534;48.784;9.190;2022-12-13T07:10:00;-0.50;99.90
10964;DHT22;5534;48.784;9.190;2022-12-13T07:12:26;-0.40;99.90
10964;DHT22;5534;48.784;9.190;2022-12-13T07:14:52;-0.50;99.90
10964;DHT22;5534;48.784;9.190;2022-12-13T07:17:20;-0.50;99.90
10964;DHT22;5534;48.784;9.190;2022-12-13T07:19:49;-0.50;99.90
10964;DHT22;5534;48.784;9.190;2022-12-13T07:22:15;-0.40;99.90
10964;DHT22;5534;48.784;9.190;2022-12-13T07:24:41;-0.40;99.90
10964;DHT22;5534;48.784;9.190;2022-12-13T07:27:07;-0.50;99.90
10964;DHT22;5534;48.784;9.190;2022-12-13T07:29:32;-0.50;99.90
10964;DHT22;5534;48.784;9.190;2022-12-13T07:31:58;-0.70;99.90
10964;DHT22;5534;48.784;9.190;2022-12-13T07:34:24;-0.90;99.90
10964;DHT22;5534;48.784;9.190;2022-12-13T07:36:49;-0.80;99.90
10964;DHT22;5534;48.784;9.190;2022-12-13T07:39:15;-0.70;99.90
10964;DHT22;5534;48.784;9.190;2022-12-13T07:41:41;-0.50;99.90
10964;DHT22;5534;48.784;9.190;2022-12-13T07:44:07;-0.50;99.90
10964;DHT22;5534;48.784;9.190;2022-12-13T07:46:33;-0.50;99.90
10964;DHT22;5534;48.784;9.190;2022-12-13T07:49:00;-0.60;99.90
10964;DHT22;5534;48.784;9.190;2022-12-13T07:51:27;-0.60;99.90
10964;DHT22;5534;48.784;9.190;2022-12-13T07:53:53;-0.60;99.90
10964;DHT22;5534;48.784;9.190;2022-12-13T07:56:19;-1.10;99.90
10964;DHT22;5534;48.784;9.190;2022-12-13T07:58:44;-0.90;99.90
10964;DHT22;5534;48.784;9.190;2022-12-13T08:01:12;-1.00;99.90
10964;DHT22;5534;48.784;9.190;2022-12-13T08:03:38;-1.00;99.90
10964;DHT22;5534;48.784;9.190;2022-12-13T08:06:08;-1.00;99.90
10964;DHT22;5534;48.784;9.190;2022-12-13T08:08:36;-0.70;99.90
10964;DHT22;5534;48.784;9.190;2022-12-13T08:11:08;-0.90;99.90
10964;DHT22;5534;48.784;9.190;2022-12-13T08:13:34;-0.60;99.90
10964;DHT22;5534;48.784;9.190;2022-12-13T08:16:03;-0.50;99.90
10964;DHT22;5534;48.784;9.190;2022-12-13T08:18:29;-0.30;99.90
10964;DHT22;5534;48.784;9.190;2022-12-13T08:21:03;-0.20;99.90
10964;DHT22;5534;48.784;9.190;2022-12-13T08:23:30;-0.30;99.90
10964;DHT22;5534;48.784;9.190;2022-12-13T08:25:57;-0.40;99.90
10964;DHT22;5534;48.784;9.190;2022-12-13T08:28:24;-0.50;99.90
10964;DHT22;5534;48.784;9.190;2022-12-13T08:30:50;-0.40;99.90
10964;DHT22;5534;48.784;9.190;2022-12-13T08:33:16;-0.40;99.90
10964;DHT22;5534;48.784;9.190;2022-12-13T08:35:44;-0.30;99.90
10964;DHT22;5534;48.784;9.190;2022-12-13T08:38:10;-0.20;99.90
10964;DHT22;5534;48.784;9.190;2022-12-13T08:40:36;-0.20;99.90
10964;DHT22;5534;48.784;9.190;2022-12-13T08:43:02;-0.10;99.90
10964;DHT22;5534;48.784;9.190;2022-12-13T08:45:28;0.00;99.90
10964;DHT22;5534;48.784;9.190;2022-12-13T08:47:57;0.00;99.90
10964;DHT22;5534;48.784;9.190;2022-12-13T08:50:24;0.00;99.90
10964;DHT22;5534;48.784;9.190;2022-12-13T08:52:51;0.00;99.90
10964;DHT22;5534;48.784;9.190;2022-12-13T08:55:17;0.00;99.90
10964;DHT22;5534;48.784;9.190;2022-12-13T08:57:44;0.00;99.90
10964;DHT22;5534;48.784;9.190;2022-12-13T09:00:16;0.00;99.90
10964;DHT22;5534;48.784;9.190;2022-12-13T09:02:42;0.00;99.90
10964;DHT22;5534;48.784;9.190;2022-12-13T09:05:09;0.20;99.90
10964;DHT22;5534;48.784;9.190;2022-12-13T09:07:36;0.10;99.90
10964;DHT22;5534;48.784;9.190;2022-12-13T09:10:04;0.20;99.90
10964;DHT22;5534;48.784;9.190;2022-12-13T09:12:30;0.30;99.90
10964;DHT22;5534;48.784;9.190;2022-12-13T09:14:56;0.30;99.90
10964;DHT22;5534;48.784;9.190;2022-12-13T09:17:21;0.20;99.90
10964;DHT22;5534;48.784;9.190;2022-12-13T09:19:47;0.20;99.90
10964;DHT22;5534;48.784;9.190;2022-12-13T09:22:13;0.20;99.90
10964;DHT22;5534;48.784;9.190;2022-12-13T09:24:39;0.30;99.90
10964;DHT22;5534;48.784;9.190;2022-12-13T09:27:06;0.30;99.90
10964;DHT22;5534;48.784;9.190;2022-12-13T09:29:34;0.50;99.90
10964;DHT22;5534;48.784;9.190;2022-12-13T09:32:00;0.30;99.90
10964;DHT22;5534;48.784;9.190;2022-12-13T09:34:26;0.40;99.90
10964;DHT22;5534;48.784;9.190;2022-12-13T09:36:53;0.40;99.90
10964;DHT22;5534;48.784;9.190;2022-12-13T09:39:19;0.30;99.90
10964;DHT22;5534;48.784;9.190;2022-12-13T09:41:48;0.30;99.90
10964;DHT22;5534;48.784;9.190;2022-12-13T09:44:30;0.40;99.90
10964;DHT22;5534;48.784;9.190;2022-12-13T09:47:02;0.40;99.90
10964;DHT22;5534;48.784;9.190;2022-12-13T09:49:38;0.50;99.90
10964;DHT22;5534;48.784;9.190;2022-12-13T09:52:06;0.40;99.90
10964;DHT22;5534;48.784;9.190;2022-12-13T09:54:34;0.40;99.90
10964;DHT22;5534;48.784;9.190;2022-12-13T09:57:00;0.50;99.90
10964;DHT22;5534;48.784;9.190;2022-12-13T09:59:31;0.50;99.90
10964;DHT22;5534;48.784;9.190;2022-12-13T10:04:42;1.00;99.90
10964;DHT22;5534;48.784;9.190;2022-12-13T10:07:15;1.20;99.90
10964;DHT22;5534;48.784;9.190;2022-12-13T10:09:43;1.10;99.90
10964;DHT22;5534;48.784;9.190;2022-12-13T10:12:12;1.00;99.90
10964;DHT22;5534;48.784;9.190;2022-12-13T10:14:45;1.00;99.90
10964;DHT22;5534;48.784;9.190;2022-12-13T10:17:16;1.00;99.90
10964;DHT22;5534;48.784;9.190;2022-12-13T10:19:45;1.00;99.90
10964;DHT22;5534;48.784;9.190;2022-12-13T10:22:16;1.00;99.90
10964;DHT22;5534;48.784;9.190;2022-12-13T10:25:00;0.90;99.90
10964;DHT22;5534;48.784;9.190;2022-12-13T10:27:29;1.00;99.90
10964;DHT22;5534;48.784;9.190;2022-12-13T10:35:38;1.10;99.90
10964;DHT22;5534;48.784;9.190;2022-12-13T10:40:41;1.20;99.90
10964;DHT22;5534;48.784;9.190;2022-12-13T10:43:30;1.20;99.90
10964;DHT22;5534;48.784;9.190;2022-12-13T10:45:57;1.20;99.90
10964;DHT22;5534;48.784;9.190;2022-12-13T10:51:09;1.20;99.90
10964;DHT22;5534;48.784;9.190;2022-12-13T10:56:16;1.30;99.90
10964;DHT22;5534;48.784;9.190;2022-12-13T10:58:44;1.40;99.90
10964;DHT22;5534;48.784;9.190;2022-12-13T11:01:23;1.40;99.90
10964;DHT22;5534;48.784;9.190;2022-12-13T11:04:03;1.50;99.90
10964;DHT22;5534;48.784;9.190;2022-12-13T11:06:42;1.50;99.90
10964;DHT22;5534;48.784;9.190;2022-12-13T11:09:36;1.50;99.90
10964;DHT22;5534;48.784;9.190;2022-12-13T11:12:08;1.50;99.90
10964;DHT22;5534;48.784;9.190;2022-12-13T11:14:39;1.50;99.90
10964;DHT22;5534;48.784;9.190;2022-12-13T11:17:20;1.50;99.90
10964;DHT22;5534;48.784;9.190;2022-12-13T11:19:52;1.60;99.90
10964;DHT22;5534;48.784;9.190;2022-12-13T11:22:25;1.60;99.90
10964;DHT22;5534;48.784;9.190;2022-12-13T11:30:54;1.40;99.90
10964;DHT22;5534;48.784;9.190;2022-12-13T11:33:20;1.50;99.90
10964;DHT22;5534;48.784;9.190;2022-12-13T11:39:15;1.40;99.90
10964;DHT22;5534;48.784;9.190;2022-12-13T11:41:59;1.60;99.90
10964;DHT22;5534;48.784;9.190;2022-12-13T11:44:46;1.50;99.90
10964;DHT22;5534;48.784;9.190;2022-12-13T11:47:26;1.70;99.90
10964;DHT22;5534;48.784;9.190;2022-12-13T11:49:55;1.70;99.90
10964;DHT22;5534;48.784;9.190;2022-12-13T11:52:39;1.80;99.90
10964;DHT22;5534;48.784;9.190;2022-12-13T11:58:00;1.90;99.90
10964;DHT22;5534;48.784;9.190;2022-12-13T12:00:43;1.90;99.90
10964;DHT22;5534;48.784;9.190;2022-12-13T12:03:19;2.00;99.90
10964;DHT22;5534;48.784;9.190;2022-12-13T12:09:01;2.00;99.90
10964;DHT22;5534;48.784;9.190;2022-12-13T12:16:53;2.10;99.90
10964;DHT22;5534;48.784;9.190;2022-12-13T12:19:22;2.10;99.90
10964;DHT22;5534;48.784;9.190;2022-12-13T12:22:16;2.00;99.90
10964;DHT22;5534;48.784;9.190;2022-12-13T12:24:57;1.90;99.90
10964;DHT22;5534;48.784;9.190;2022-12-13T12:32:42;2.10;99.90
10964;DHT22;5534;48.784;9.190;2022-12-13T12:38:12;2.20;99.90
10964;DHT22;5534;48.784;9.190;2022-12-13T12:41:16;2.30;99.90
10964;DHT22;5534;48.784;9.190;2022-12-13T12:43:51;2.30;99.90
10964;DHT22;5534;48.784;9.190;2022-12-13T12:55:02;2.40;99.90
10964;DHT22;5534;48.784;9.190;2022-12-13T12:57:51;2.40;99.90
10964;DHT22;5534;48.784;9.190;2022-12-13T13:00:22;2.30;99.90
10964;DHT22;5534;48.784;9.190;2022-12-13T13:03:26;2.30;99.90
10964;DHT22;5534;48.784;9.190;2022-12-13T13:06:17;2.30;99.90
10964;DHT22;5534;48.784;9.190;2022-12-13T13:08:59;2.40;99.90
10964;DHT22;5534;48.784;9.190;2022-12-13T13:11:28;2.40;99.90
10964;DHT22;5534;48.784;9.190;2022-12-13T13:14:02;2.50;99.90
10964;DHT22;5534;48.784;9.190;2022-12-13T13:16:36;2.50;99.90
10964;DHT22;5534;48.784;9.190;2022-12-13T13:19:04;2.60;99.90
10964;DHT22;5534;48.784;9.190;2022-12-13T13:27:27;2.50;99.90
10964;DHT22;5534;48.784;9.190;2022-12-13T13:29:34;2.50;99.90
10964;DHT22;5534;48.784;9.190;2022-12-13T13:34:33;2.60;99.90
10964;DHT22;5534;48.784;9.190;2022-12-13T13:42:20;2.50;99.90
10964;DHT22;5534;48.784;9.190;2022-12-13T13:58:40;2.60;99.90
10964;DHT22;5534;48.784;9.190;2022-12-13T14:21:25;2.80;99.90
10964;DHT22;5534;48.784;9.190;2022-12-13T14:29:44;2.80;99.90
10964;DHT22;5534;48.784;9.190;2022-12-13T14:32:24;2.80;99.90
10964;DHT22;5534;48.784;9.190;2022-12-13T14:34:51;2.70;99.90
10964;DHT22;5534;48.784;9.190;2022-12-13T14:37:25;2.80;99.90
10964;DHT22;5534;48.784;9.190;2022-12-13T14:39:55;2.80;99.90
10964;DHT22;5534;48.784;9.190;2022-12-13T14:42:28;2.80;99.90
10964;DHT22;5534;48.784;9.190;2022-12-13T14:45:24;2.80;99.90
10964;DHT22;5534;48.784;9.190;2022-12-13T14:47:54;2.70;99.90
10964;DHT22;5534;48.784;9.190;2022-12-13T14:50:24;2.40;99.90
10964;DHT22;5534;48.784;9.190;2022-12-13T14:52:50;2.10;99.90
10964;DHT22;5534;48.784;9.190;2022-12-13T14:57:54;2.60;99.90
10964;DHT22;5534;48.784;9.190;2022-12-13T15:02:53;2.80;99.90
10964;DHT22;5534;48.784;9.190;2022-12-13T15:05:26;2.80;99.90
10964;DHT22;5534;48.784;9.190;2022-12-13T15:07:52;2.80;99.90
10964;DHT22;5534;48.784;9.190;2022-12-13T15:10:36;2.80;99.90
10964;DHT22;5534;48.784;9.190;2022-12-13T15:13:04;2.80;99.90
10964;DHT22;5534;48.784;9.190;2022-12-13T15:15:33;2.70;99.90
10964;DHT22;5534;48.784;9.190;2022-12-13T15:18:21;2.80;99.90
10964;DHT22;5534;48.784;9.190;2022-12-13T15:20:51;2.60;99.90
10964;DHT22;5534;48.784;9.190;2022-12-13T15:23:25;2.70;99.90
10964;DHT22;5534;48.784;9.190;2022-12-13T15:25:59;2.70;99.90
10964;DHT22;5534;48.784;9.190;2022-12-13T15:28:33;2.70;99.90
10964;DHT22;5534;48.784;9.190;2022-12-13T15:31:00;2.70;99.90
10964;DHT22;5534;48.784;9.190;2022-12-13T15:33:27;2.70;99.90
10964;DHT22;5534;48.784;9.190;2022-12-13T15:38:58;2.80;99.90
10964;DHT22;5534;48.784;9.190;2022-12-13T15:41:28;2.80;99.90
10964;DHT22;5534;48.784;9.190;2022-12-13T15:44:01;2.70;99.90
10964;DHT22;5534;48.784;9.190;2022-12-13T15:46:33;2.70;99.90
10964;DHT22;5534;48.784;9.190;2022-12-13T15:49:05;2.70;99.90
10964;DHT22;5534;48.784;9.190;2022-12-13T15:52:01;2.80;99.90
10964;DHT22;5534;48.784;9.190;2022-12-13T15:54:27;2.80;99.90
10964;DHT22;5534;48.784;9.190;2022-12-13T15:57:13;2.80;99.90
10964;DHT22;5534;48.784;9.190;2022-12-13T15:59:41;2.80;99.90
10964;DHT22;5534;48.784;9.190;2022-12-13T16:02:18;2.70;99.90
10964;DHT22;5534;48.784;9.190;2022-12-13T16:04:45;2.70;99.90
10964;DHT22;5534;48.784;9.190;2022-12-13T16:07:27;2.70;99.90
10964;DHT22;5534;48.784;9.190;2022-12-13T16:09:58;2.60;99.90
10964;DHT22;5534;48.784;9.190;2022-12-13T16:12:34;2.60;99.90
10964;DHT22;5534;48.784;9.190;2022-12-13T16:15:24;2.50;99.90
10964;DHT22;5534;48.784;9.190;2022-12-13T16:17:52;1.70;99.90
10964;DHT22;5534;48.784;9.190;2022-12-13T16:20:21;1.90;99.90
10964;DHT22;5534;48.784;9.190;2022-12-13T16:22:47;2.00;99.90
10964;DHT22;5534;48.784;9.190;2022-12-13T16:25:17;2.20;99.90
10964;DHT22;5534;48.784;9.190;2022-12-13T16:27:46;2.40;99.90
10964;DHT22;5534;48.784;9.190;2022-12-13T16:30:24;2.50;99.90
10964;DHT22;5534;48.784;9.190;2022-12-13T16:32:51;2.50;99.90
10964;DHT22;5534;48.784;9.190;2022-12-13T16:35:18;2.50;99.90
10964;DHT22;5534;48.784;9.190;2022-12-13T16:37:44;2.50;99.90
10964;DHT22;5534;48.784;9.190;2022-12-13T16:40:24;2.60;99.90
10964;DHT22;5534;48.784;9.190;2022-12-13T16:42:56;2.40;99.90
10964;DHT22;5534;48.784;9.190;2022-12-13T16:45:22;2.40;99.90
10964;DHT22;5534;48.784;9.190;2022-12-13T16:47:48;2.40;99.90
10964;DHT22;5534;48.784;9.190;2022-12-13T16:50:16;2.50;99.90
10964;DHT22;5534;48.784;9.190;2022-12-13T16:52:42;2.30;99.90
10964;DHT22;5534;48.784;9.190;2022-12-13T16:55:09;2.40;99.90
10964;DHT22;5534;48.784;9.190;2022-12-13T16:57:35;2.40;99.90
10964;DHT22;5534;48.784;9.190;2022-12-13T17:00:01;2.30;99.90
10964;DHT22;5534;48.784;9.190;2022-12-13T17:02:27;2.40;99.90
10964;DHT22;5534;48.784;9.190;2022-12-13T17:04:55;2.40;99.90
10964;DHT22;5534;48.784;9.190;2022-12-13T17:07:21;2.40;99.90
10964;DHT22;5534;48.784;9.190;2022-12-13T17:09:48;2.40;99.90
10964;DHT22;5534;48.784;9.190;2022-12-13T17:12:14;2.40;99.90
10964;DHT22;5534;48.784;9.190;2022-12-13T17:14:40;2.30;99.90
10964;DHT22;5534;48.784;9.190;2022-12-13T17:17:05;2.30;99.90
10964;DHT22;5534;48.784;9.190;2022-12-13T17:19:34;2.10;99.90
10964;DHT22;5534;48.784;9.190;2022-12-13T17:22:00;2.20;99.90
10964;DHT22;5534;48.784;9.190;2022-12-13T17:24:25;2.30;99.90
10964;DHT22;5534;48.784;9.190;2022-12-13T17:26:51;2.40;99.90
10964;DHT22;5534;48.784;9.190;2022-12-13T17:29:24;2.20;99.90
10964;DHT22;5534;48.784;9.190;2022-12-13T17:31:50;2.20;99.90
10964;DHT22;5534;48.784;9.190;2022-12-13T17:34:16;2.10;99.90
10964;DHT22;5534;48.784;9.190;2022-12-13T17:36:42;2.20;99.90
10964;DHT22;5534;48.784;9.190;2022-12-13T17:39:09;2.20;99.90
10964;DHT22;5534;48.784;9.190;2022-12-13T17:41:36;2.30;99.90
10964;DHT22;5534;48.784;9.190;2022-12-13T17:44:05;2.30;99.90
10964;DHT22;5534;48.784;9.190;2022-12-13T17:46:30;2.30;99.90
10964;DHT22;5534;48.784;9.190;2022-12-13T17:48:56;2.30;99.90
10964;DHT22;5534;48.784;9.190;2022-12-13T17:51:22;2.20;99.90
10964;DHT22;5534;48.784;9.190;2022-12-13T17:53:48;2.20;99.90
10964;DHT22;5534;48.784;9.190;2022-12-13T17:56:15;2.20;99.90
10964;DHT22;5534;48.784;9.190;2022-12-13T17:58:42;2.20;99.90
10964;DHT22;5534;48.784;9.190;2022-12-13T18:03:36;2.10;99.90
10964;DHT22;5534;48.784;9.190;2022-12-13T18:06:04;2.10;99.90
10964;DHT22;5534;48.784;9.190;2022-12-13T18:08:37;2.20;99.90
10964;DHT22;5534;48.784;9.190;2022-12-13T18:11:04;1.90;99.90
10964;DHT22;5534;48.784;9.190;2022-12-13T18:13:30;2.10;99.90
10964;DHT22;5534;48.784;9.190;2022-12-13T18:15:55;2.10;99.90
10964;DHT22;5534;48.784;9.190;2022-12-13T18:18:21;2.10;99.90
10964;DHT22;5534;48.784;9.190;2022-12-13T18:20:47;2.20;99.90
10964;DHT22;5534;48.784;9.190;2022-12-13T18:23:14;2.20;99.90
10964;DHT22;5534;48.784;9.190;2022-12-13T18:25:40;2.00;99.90
10964;DHT22;5534;48.784;9.190;2022-12-13T18:28:07;2.10;99.90
10964;DHT22;5534;48.784;9.190;2022-12-13T18:30:36;2.20;99.90
10964;DHT22;5534;48.784;9.190;2022-12-13T18:33:03;2.20;99.90
10964;DHT22;5534;48.784;9.190;2022-12-13T18:35:30;2.20;99.90
10964;DHT22;5534;48.784;9.190;2022-12-13T18:37:56;2.30;99.90